Time;durP1;ratioP1;P1;durP2;ratioP2;P2;SDS_P1;SDS_P2;PMS_P1;PMS_P2;Temp;Humidity;BMP_temperature;BMP_pressure;BME280_temperature;BME280_humidity;BME280_pressure;Samples;Min_cycle;Max_cycle;Signal;HPM_P1;HPM_P2
2023/08/13 00:01:47;;;;;;;9.82;4.57;;;;;;;;;;5079325;28;20924;-59
2023/08/13 00:04:16;;;;;;;11.02;5.20;;;;;;;;;;5078664;28;20451;-59
2023/08/13 00:06:43;;;;;;;8.20;4.60;;;;;;;;;;5075942;28;20424;-58
2023/08/13 00:09:10;;;;;;;10.40;4.35;;;;;;;;;;5078152;28;20414;-59
2023/08/13 00:11:37;;;;;;;9.00;4.35;;;;;;;;;;5079174;28;20875;-58
2023/08/13 00:14:04;;;;;;;10.50;6.00;;;;;;;;;;5078290;28;20415;-58
2023/08/13 00:16:31;;;;;;;12.23;5.22;;;;;;;;;;5079009;28;20407;-58
2023/08/13 00:18:58;;;;;;;10.07;5.22;;;;;;;;;;5078018;28;20845;-57
2023/08/13 00:21:26;;;;;;;11.20;5.30;;;;;;;;;;5078582;28;20407;-58
2023/08/13 00:23:53;;;;;;;9.38;4.80;;;;;;;;;;5077413;28;20899;-57
2023/08/13 00:26:20;;;;;;;8.83;4.60;;;;;;;;;;5085351;28;20455;-59
2023/08/13 00:28:47;;;;;;;7.82;4.40;;;;;;;;;;5078917;28;20473;-58
2023/08/13 00:31:14;;;;;;;9.88;4.53;;;;;;;;;;5079047;28;20912;-59
2023/08/13 00:33:41;;;;;;;7.80;4.63;;;;;;;;;;5080784;28;20500;-55
2023/08/13 00:36:08;;;;;;;13.43;4.50;;;;;;;;;;5074653;28;20467;-59
2023/08/13 00:38:36;;;;;;;10.00;4.63;;;;;;;;;;5077496;28;20411;-57
2023/08/13 00:41:03;;;;;;;10.80;4.50;;;;;;;;;;5084210;28;20536;-57
2023/08/13 00:43:30;;;;;;;9.05;4.65;;;;;;;;;;5080354;28;20410;-58
2023/08/13 00:45:58;;;;;;;8.70;4.28;;;;;;;;;;5083149;28;20413;-59
2023/08/13 00:48:25;;;;;;;10.57;4.50;;;;;;;;;;5086853;28;20451;-58
2023/08/13 00:50:52;;;;;;;11.25;4.63;;;;;;;;;;5083620;28;20765;-59
2023/08/13 00:53:19;;;;;;;12.30;4.30;;;;;;;;;;5080665;28;20426;-56
2023/08/13 00:55:47;;;;;;;9.27;4.45;;;;;;;;;;5083030;28;20898;-58
2023/08/13 00:58:14;;;;;;;9.27;4.40;;;;;;;;;;5080894;28;20421;-57
2023/08/13 01:00:41;;;;;;;13.15;4.55;;;;;;;;;;5080976;28;20415;-58
2023/08/13 01:03:08;;;;;;;10.10;4.60;;;;;;;;;;5086889;28;20471;-58
2023/08/13 01:05:37;;;;;;;10.35;4.32;;;;;;;;;;5084991;28;20415;-59
2023/08/13 01:08:09;;;;;;;7.95;4.15;;;;;;;;;;5084479;28;20413;-59
2023/08/13 01:10:37;;;;;;;10.00;4.00;;;;;;;;;;5076136;28;20423;-57
2023/08/13 01:13:21;;;;;;;16.48;4.43;;;;;;;;;;5070356;28;20465;-59
2023/08/13 01:15:50;;;;;;;10.90;4.47;;;;;;;;;;5075619;28;20401;-59
2023/08/13 01:18:17;;;;;;;9.10;4.05;;;;;;;;;;5072474;28;21151;-55
2023/08/13 01:20:45;;;;;;;8.95;4.10;;;;;;;;;;5077977;28;20887;-58
2023/08/13 01:23:13;;;;;;;9.25;4.30;;;;;;;;;;5078785;28;20860;-58
2023/08/13 01:25:43;;;;;;;8.95;3.80;;;;;;;;;;5080692;28;20427;-58
2023/08/13 01:28:13;;;;;;;8.60;4.05;;;;;;;;;;5082922;28;20471;-57
2023/08/13 01:30:42;;;;;;;9.55;3.90;;;;;;;;;;5079211;28;20934;-57
2023/08/13 01:33:10;;;;;;;10.55;3.97;;;;;;;;;;5083458;28;21113;-57
2023/08/13 01:35:37;;;;;;;9.35;4.03;;;;;;;;;;5076630;28;20414;-58
2023/08/13 01:38:05;;;;;;;7.68;3.95;;;;;;;;;;5084043;28;20418;-56
2023/08/13 01:40:34;;;;;;;11.50;4.32;;;;;;;;;;5077737;28;20431;-58
2023/08/13 01:43:01;;;;;;;9.97;3.57;;;;;;;;;;5082820;28;20418;-58
2023/08/13 01:45:28;;;;;;;11.95;4.15;;;;;;;;;;5076089;28;20413;-58
2023/08/13 01:47:55;;;;;;;8.55;3.78;;;;;;;;;;5082278;28;20410;-59
2023/08/13 01:50:22;;;;;;;7.35;3.55;;;;;;;;;;5077985;28;20426;-58
2023/08/13 01:52:49;;;;;;;8.98;3.83;;;;;;;;;;5080884;28;20423;-57
2023/08/13 01:55:16;;;;;;;11.70;3.63;;;;;;;;;;5080478;28;20416;-57
2023/08/13 01:57:44;;;;;;;8.02;3.50;;;;;;;;;;5081939;28;20407;-58
2023/08/13 02:00:12;;;;;;;11.95;3.95;;;;;;;;;;5077663;28;20437;-56
2023/08/13 02:02:39;;;;;;;9.55;3.50;;;;;;;;;;5084496;28;20429;-58
2023/08/13 02:05:07;;;;;;;10.63;3.72;;;;;;;;;;5077593;28;21063;-57
2023/08/13 02:07:34;;;;;;;9.45;3.50;;;;;;;;;;5084728;28;20504;-58
2023/08/13 02:10:01;;;;;;;8.80;3.70;;;;;;;;;;5079059;28;21004;-58
2023/08/13 02:12:28;;;;;;;10.60;3.90;;;;;;;;;;5079259;28;20452;-58
2023/08/13 02:14:56;;;;;;;11.90;4.13;;;;;;;;;;5078967;28;20408;-57
2023/08/13 02:17:23;;;;;;;7.47;3.50;;;;;;;;;;5080670;28;20805;-58
2023/08/13 02:19:50;;;;;;;8.07;3.95;;;;;;;;;;5076557;28;20414;-58
2023/08/13 02:22:17;;;;;;;10.98;4.00;;;;;;;;;;5079040;28;20408;-59
2023/08/13 02:24:44;;;;;;;12.43;3.97;;;;;;;;;;5080313;28;20504;-57
2023/08/13 02:27:11;;;;;;;11.13;4.25;;;;;;;;;;5084266;28;20455;-58
2023/08/13 02:29:38;;;;;;;12.10;3.95;;;;;;;;;;5083949;28;20420;-58
2023/08/13 02:32:07;;;;;;;10.88;3.78;;;;;;;;;;5086155;28;20422;-58
2023/08/13 02:34:34;;;;;;;12.23;3.77;;;;;;;;;;5083212;28;20410;-57
2023/08/13 02:37:01;;;;;;;11.45;3.78;;;;;;;;;;5079773;28;20440;-58
2023/08/13 02:39:28;;;;;;;8.05;4.03;;;;;;;;;;5078396;28;20765;-57
2023/08/13 02:41:55;;;;;;;10.05;3.72;;;;;;;;;;5081499;28;20447;-58
2023/08/13 02:44:24;;;;;;;10.60;3.93;;;;;;;;;;5078485;28;20410;-58
2023/08/13 02:46:51;;;;;;;9.43;3.72;;;;;;;;;;5078768;28;20494;-57
2023/08/13 02:49:19;;;;;;;9.25;3.53;;;;;;;;;;5089852;28;20406;-58
2023/08/13 02:51:46;;;;;;;9.35;3.53;;;;;;;;;;5082264;28;20457;-58
2023/08/13 02:54:13;;;;;;;8.80;3.60;;;;;;;;;;5073691;28;20925;-58
2023/08/13 02:56:42;;;;;;;14.67;3.60;;;;;;;;;;5080019;28;20465;-58
2023/08/13 02:59:09;;;;;;;12.23;3.97;;;;;;;;;;5077031;28;20413;-58
2023/08/13 03:01:38;;;;;;;9.60;3.78;;;;;;;;;;5076114;28;20829;-56
2023/08/13 03:04:05;;;;;;;11.02;3.80;;;;;;;;;;5081794;28;20419;-58
2023/08/13 03:06:34;;;;;;;9.15;3.50;;;;;;;;;;5083684;28;20945;-58
2023/08/13 03:09:01;;;;;;;10.13;3.63;;;;;;;;;;5081749;28;20481;-56
2023/08/13 03:11:28;;;;;;;11.15;3.75;;;;;;;;;;5075643;28;20430;-58
2023/08/13 03:13:55;;;;;;;9.35;3.30;;;;;;;;;;5086386;28;20410;-58
2023/08/13 03:16:22;;;;;;;11.25;3.45;;;;;;;;;;5083349;28;20421;-59
2023/08/13 03:18:49;;;;;;;10.23;3.60;;;;;;;;;;5078291;28;20819;-58
2023/08/13 03:21:16;;;;;;;11.95;3.78;;;;;;;;;;5077379;28;20428;-58
2023/08/13 03:23:44;;;;;;;10.52;3.50;;;;;;;;;;5079556;28;20416;-57
2023/08/13 03:26:11;;;;;;;8.90;3.70;;;;;;;;;;5079183;28;20412;-59
2023/08/13 03:28:38;;;;;;;10.00;3.80;;;;;;;;;;5086908;28;20471;-58
2023/08/13 03:31:05;;;;;;;14.00;3.80;;;;;;;;;;5077820;28;20506;-57
2023/08/13 03:33:32;;;;;;;10.02;3.75;;;;;;;;;;5080999;28;20412;-59
2023/08/13 03:35:59;;;;;;;12.73;3.55;;;;;;;;;;5077387;28;20449;-58
2023/08/13 03:38:26;;;;;;;11.60;3.90;;;;;;;;;;5079342;28;20417;-59
2023/08/13 03:40:56;;;;;;;9.80;3.65;;;;;;;;;;5078122;28;20408;-59
2023/08/13 03:43:23;;;;;;;10.75;4.07;;;;;;;;;;5085132;28;20811;-58
2023/08/13 03:45:50;;;;;;;11.65;4.20;;;;;;;;;;5082741;28;20900;-58
2023/08/13 03:48:17;;;;;;;10.30;4.00;;;;;;;;;;5072786;28;20407;-59
2023/08/13 03:50:45;;;;;;;11.60;3.70;;;;;;;;;;5076051;28;20476;-58
2023/08/13 03:53:12;;;;;;;13.05;4.00;;;;;;;;;;5083535;28;20421;-59
2023/08/13 03:55:39;;;;;;;7.75;3.60;;;;;;;;;;5082395;28;20408;-59
2023/08/13 03:58:08;;;;;;;10.50;3.70;;;;;;;;;;5081075;28;21022;-59
2023/08/13 04:00:35;;;;;;;11.40;3.63;;;;;;;;;;5071077;28;20422;-59
2023/08/13 04:03:03;;;;;;;11.90;3.90;;;;;;;;;;5079516;28;20413;-59
2023/08/13 04:05:30;;;;;;;13.90;3.67;;;;;;;;;;5073758;28;20457;-59
2023/08/13 04:07:58;;;;;;;9.82;4.15;;;;;;;;;;5082247;28;20408;-59
2023/08/13 04:10:25;;;;;;;8.00;3.58;;;;;;;;;;5082137;28;20941;-59
2023/08/13 04:12:52;;;;;;;7.90;3.63;;;;;;;;;;5081300;28;20436;-59
2023/08/13 04:15:21;;;;;;;12.63;3.83;;;;;;;;;;5083495;28;20965;-59
2023/08/13 04:17:48;;;;;;;9.43;3.78;;;;;;;;;;5084186;28;20827;-58
2023/08/13 04:20:15;;;;;;;8.45;3.58;;;;;;;;;;5079536;28;20411;-59
2023/08/13 04:22:42;;;;;;;11.80;3.80;;;;;;;;;;5077518;28;20419;-58
2023/08/13 04:25:09;;;;;;;13.27;4.27;;;;;;;;;;5084082;28;20479;-59
2023/08/13 04:27:36;;;;;;;12.47;4.33;;;;;;;;;;5082792;28;20502;-59
2023/08/13 04:30:04;;;;;;;10.30;3.83;;;;;;;;;;5087530;28;20419;-59
2023/08/13 04:32:32;;;;;;;11.43;4.10;;;;;;;;;;5081499;28;20431;-59
2023/08/13 04:34:59;;;;;;;9.18;3.88;;;;;;;;;;5081519;28;20410;-58
2023/08/13 04:37:26;;;;;;;13.38;4.43;;;;;;;;;;5083526;28;20817;-58
2023/08/13 04:39:53;;;;;;;10.48;3.90;;;;;;;;;;5084671;28;20473;-59
2023/08/13 04:42:20;;;;;;;11.73;4.03;;;;;;;;;;5079560;28;20402;-59
2023/08/13 04:44:47;;;;;;;11.48;4.00;;;;;;;;;;5085644;28;20849;-60
2023/08/13 04:47:14;;;;;;;10.23;3.88;;;;;;;;;;5084518;28;20411;-59
2023/08/13 04:49:43;;;;;;;10.13;3.90;;;;;;;;;;5079271;28;20501;-59
2023/08/13 04:52:10;;;;;;;8.93;4.25;;;;;;;;;;5085665;28;20830;-59
2023/08/13 04:54:37;;;;;;;13.93;4.30;;;;;;;;;;5085925;28;20415;-59
2023/08/13 04:57:04;;;;;;;9.10;3.80;;;;;;;;;;5079677;28;20418;-59
2023/08/13 04:59:31;;;;;;;9.10;3.40;;;;;;;;;;5083242;28;20507;-58
2023/08/13 05:01:58;;;;;;;10.55;3.85;;;;;;;;;;5090603;28;20883;-60
2023/08/13 05:04:25;;;;;;;10.68;3.45;;;;;;;;;;5081079;28;20465;-59
2023/08/13 05:06:53;;;;;;;9.25;4.03;;;;;;;;;;5077106;28;20420;-59
2023/08/13 05:09:20;;;;;;;8.70;3.83;;;;;;;;;;5083956;28;20418;-60
2023/08/13 05:11:47;;;;;;;9.55;3.80;;;;;;;;;;5080307;28;20457;-59
2023/08/13 05:14:14;;;;;;;11.98;4.25;;;;;;;;;;5087309;28;21061;-60
2023/08/13 05:16:41;;;;;;;11.98;3.70;;;;;;;;;;5091719;28;20406;-59
2023/08/13 05:19:08;;;;;;;13.57;3.90;;;;;;;;;;5080035;28;20415;-57
2023/08/13 05:21:35;;;;;;;14.13;3.70;;;;;;;;;;5082788;28;20880;-59
2023/08/13 05:24:03;;;;;;;10.73;3.38;;;;;;;;;;5071149;28;20415;-59
2023/08/13 05:26:30;;;;;;;9.90;3.17;;;;;;;;;;5075190;28;20421;-59
2023/08/13 05:28:57;;;;;;;9.30;3.45;;;;;;;;;;5071068;28;20425;-58
2023/08/13 05:31:25;;;;;;;8.75;3.08;;;;;;;;;;5087548;28;20868;-57
2023/08/13 05:33:53;;;;;;;8.43;3.17;;;;;;;;;;5068147;28;20427;-59
2023/08/13 05:36:20;;;;;;;10.32;3.40;;;;;;;;;;5085294;28;20418;-59
2023/08/13 05:38:47;;;;;;;7.60;3.00;;;;;;;;;;5076904;28;20455;-59
2023/08/13 05:41:16;;;;;;;8.88;3.38;;;;;;;;;;5079001;28;20428;-58
2023/08/13 05:43:43;;;;;;;8.30;3.20;;;;;;;;;;5081384;28;20403;-59
2023/08/13 05:46:10;;;;;;;9.57;2.97;;;;;;;;;;5071483;28;20882;-58
2023/08/13 05:48:37;;;;;;;10.02;3.55;;;;;;;;;;5071227;28;20531;-59
2023/08/13 05:51:04;;;;;;;6.78;3.10;;;;;;;;;;5073509;28;20467;-55
2023/08/13 05:53:31;;;;;;;10.15;3.20;;;;;;;;;;5077199;28;20482;-58
2023/08/13 05:55:59;;;;;;;10.23;3.35;;;;;;;;;;5076971;28;20427;-59
2023/08/13 05:58:28;;;;;;;6.53;2.92;;;;;;;;;;5072815;28;20422;-59
2023/08/13 06:00:55;;;;;;;9.40;3.30;;;;;;;;;;5080210;28;20912;-59
2023/08/13 06:03:22;;;;;;;11.18;3.22;;;;;;;;;;5078550;28;20411;-59
2023/08/13 06:05:49;;;;;;;6.80;2.90;;;;;;;;;;5082988;28;20496;-57
2023/08/13 06:08:16;;;;;;;6.47;2.55;;;;;;;;;;5079595;28;20410;-59
2023/08/13 06:10:43;;;;;;;9.57;3.03;;;;;;;;;;5072897;28;20453;-58
2023/08/13 06:13:10;;;;;;;7.75;2.97;;;;;;;;;;5077861;28;20937;-59
2023/08/13 06:15:39;;;;;;;7.75;2.83;;;;;;;;;;5078262;28;20410;-56
2023/08/13 06:18:06;;;;;;;9.20;2.92;;;;;;;;;;5085794;28;20420;-59
2023/08/13 06:20:33;;;;;;;8.35;3.17;;;;;;;;;;5071296;28;20459;-59
2023/08/13 06:23:00;;;;;;;10.52;3.13;;;;;;;;;;5084228;28;20410;-59
2023/08/13 06:25:27;;;;;;;9.57;3.28;;;;;;;;;;5083111;28;20414;-59
2023/08/13 06:27:54;;;;;;;7.90;2.50;;;;;;;;;;5081494;28;20474;-59
2023/08/13 06:30:21;;;;;;;9.05;3.15;;;;;;;;;;5081532;28;20497;-58
2023/08/13 06:32:49;;;;;;;7.20;3.03;;;;;;;;;;5079282;28;20498;-59
2023/08/13 06:35:16;;;;;;;10.25;2.95;;;;;;;;;;5075381;28;20418;-58
2023/08/13 06:37:43;;;;;;;9.77;2.90;;;;;;;;;;5076852;28;20411;-59
2023/08/13 06:40:11;;;;;;;8.45;2.80;;;;;;;;;;5077947;28;20894;-57
2023/08/13 06:42:38;;;;;;;9.40;2.83;;;;;;;;;;5075389;28;20420;-58
2023/08/13 06:45:05;;;;;;;9.82;3.00;;;;;;;;;;5080726;28;20420;-59
2023/08/13 06:47:32;;;;;;;9.27;2.65;;;;;;;;;;5079794;28;20408;-59
2023/08/13 06:50:00;;;;;;;7.50;2.63;;;;;;;;;;5076674;28;20407;-58
2023/08/13 06:52:27;;;;;;;6.53;2.55;;;;;;;;;;5080396;28;20473;-58
2023/08/13 06:54:54;;;;;;;9.23;2.70;;;;;;;;;;5078710;28;20896;-59
2023/08/13 06:57:21;;;;;;;7.78;2.33;;;;;;;;;;5074794;28;20424;-59
2023/08/13 06:59:49;;;;;;;6.88;2.50;;;;;;;;;;5083991;28;20408;-59
2023/08/13 07:02:16;;;;;;;5.30;2.38;;;;;;;;;;5086678;28;20410;-58
2023/08/13 07:04:43;;;;;;;7.85;2.58;;;;;;;;;;5078335;28;20416;-59
2023/08/13 07:07:11;;;;;;;10.05;2.67;;;;;;;;;;5075796;28;20469;-59
2023/08/13 07:09:38;;;;;;;8.63;2.38;;;;;;;;;;5086158;28;20422;-60
2023/08/13 07:12:06;;;;;;;6.38;2.30;;;;;;;;;;5077946;28;20964;-59
2023/08/13 07:14:33;;;;;;;9.88;2.72;;;;;;;;;;5079339;28;20406;-59
2023/08/13 07:17:00;;;;;;;7.40;2.47;;;;;;;;;;5088268;28;20405;-59
2023/08/13 07:19:27;;;;;;;9.15;2.47;;;;;;;;;;5072099;28;20487;-59
2023/08/13 07:21:54;;;;;;;6.67;2.30;;;;;;;;;;5073813;28;20518;-59
2023/08/13 07:24:23;;;;;;;5.35;2.33;;;;;;;;;;5075236;28;20410;-59
2023/08/13 07:26:50;;;;;;;7.20;2.55;;;;;;;;;;5069806;28;20455;-58
2023/08/13 07:29:17;;;;;;;9.30;2.60;;;;;;;;;;5077599;28;20441;-59
2023/08/13 07:31:44;;;;;;;7.10;2.40;;;;;;;;;;5081169;28;20413;-57
2023/08/13 07:34:11;;;;;;;6.60;2.30;;;;;;;;;;5074243;28;20847;-57
2023/08/13 07:36:38;;;;;;;6.57;2.23;;;;;;;;;;5081011;28;20406;-58
2023/08/13 07:39:05;;;;;;;6.97;2.28;;;;;;;;;;5078584;28;20459;-58
2023/08/13 07:41:33;;;;;;;6.60;2.05;;;;;;;;;;5078858;28;20410;-57
2023/08/13 07:44:00;;;;;;;6.75;2.20;;;;;;;;;;5078180;28;20441;-58
2023/08/13 07:46:27;;;;;;;7.97;2.23;;;;;;;;;;5075159;28;20495;-58
2023/08/13 07:48:55;;;;;;;8.30;2.30;;;;;;;;;;5073208;28;20419;-57
2023/08/13 07:51:22;;;;;;;5.55;1.83;;;;;;;;;;5080381;28;21048;-59
2023/08/13 07:53:49;;;;;;;7.55;1.83;;;;;;;;;;5078311;28;20514;-58
2023/08/13 07:56:16;;;;;;;7.57;1.70;;;;;;;;;;5078622;28;20415;-58
2023/08/13 07:58:44;;;;;;;7.20;2.30;;;;;;;;;;5082290;28;20406;-58
2023/08/13 08:01:12;;;;;;;6.43;2.00;;;;;;;;;;5088631;28;20833;-57
2023/08/13 08:03:39;;;;;;;4.95;1.70;;;;;;;;;;5077128;28;20446;-58
2023/08/13 08:06:06;;;;;;;5.25;1.70;;;;;;;;;;5074995;28;20427;-57
2023/08/13 08:08:33;;;;;;;4.87;1.50;;;;;;;;;;5074128;28;21079;-63
2023/08/13 08:11:00;;;;;;;7.13;2.40;;;;;;;;;;5074516;28;20415;-60
2023/08/13 08:13:27;;;;;;;10.40;7.10;;;;;;;;;;5078010;28;20432;-60
2023/08/13 08:15:55;;;;;;;5.93;1.80;;;;;;;;;;5071481;28;20417;-61
2023/08/13 08:18:22;;;;;;;6.43;1.77;;;;;;;;;;5073281;28;20466;-61
2023/08/13 08:20:49;;;;;;;7.75;1.88;;;;;;;;;;5076496;28;20418;-60
2023/08/13 08:23:16;;;;;;;5.00;1.45;;;;;;;;;;5085099;28;20886;-57
2023/08/13 08:25:44;;;;;;;6.00;1.50;;;;;;;;;;5077972;28;20412;-62
2023/08/13 08:28:11;;;;;;;3.83;1.40;;;;;;;;;;5074545;28;20822;-60
2023/08/13 08:30:40;;;;;;;5.72;1.63;;;;;;;;;;5077081;28;20479;-60
2023/08/13 08:33:08;;;;;;;3.97;1.38;;;;;;;;;;5073478;28;20421;-60
2023/08/13 08:35:35;;;;;;;6.30;1.70;;;;;;;;;;5072831;28;20468;-60
2023/08/13 08:38:02;;;;;;;7.47;1.83;;;;;;;;;;5079474;28;20511;-60
2023/08/13 08:40:29;;;;;;;5.55;1.58;;;;;;;;;;5074834;28;20417;-60
2023/08/13 08:42:57;;;;;;;5.40;1.50;;;;;;;;;;5073789;28;20982;-58
2023/08/13 08:45:24;;;;;;;4.38;1.48;;;;;;;;;;5069908;28;20424;-60
2023/08/13 08:47:52;;;;;;;5.53;1.52;;;;;;;;;;5082022;28;20414;-61
2023/08/13 08:50:21;;;;;;;4.20;1.50;;;;;;;;;;5075629;28;20477;-60
2023/08/13 08:52:48;;;;;;;7.33;1.60;;;;;;;;;;5069437;28;20416;-58
2023/08/13 08:55:15;;;;;;;5.32;1.33;;;;;;;;;;5080841;28;20505;-60
2023/08/13 08:57:42;;;;;;;4.47;1.20;;;;;;;;;;5080283;28;20418;-61
2023/08/13 09:00:10;;;;;;;6.38;1.45;;;;;;;;;;5081218;28;20408;-59
2023/08/13 09:02:38;;;;;;;5.40;1.60;;;;;;;;;;5081084;28;20816;-58
2023/08/13 09:05:06;;;;;;;3.72;1.40;;;;;;;;;;5079973;28;21018;-62
2023/08/13 09:07:34;;;;;;;6.88;3.83;;;;;;;;;;5082150;28;20455;-62
2023/08/13 09:10:04;;;;;;;4.93;1.60;;;;;;;;;;5077601;28;20477;-62
2023/08/13 09:12:35;;;;;;;4.82;1.70;;;;;;;;;;5081554;28;20493;-62
2023/08/13 09:15:05;;;;;;;5.05;1.40;;;;;;;;;;5079058;28;20543;-60
2023/08/13 09:17:32;;;;;;;5.95;1.65;;;;;;;;;;5092387;22;20432;-60
2023/08/13 09:19:59;;;;;;;5.97;1.77;;;;;;;;;;5084711;28;20418;-60
2023/08/13 09:22:26;;;;;;;4.25;1.58;;;;;;;;;;5079894;28;20833;-61
2023/08/13 09:24:54;;;;;;;5.05;1.52;;;;;;;;;;5078345;28;20412;-59
2023/08/13 09:27:21;;;;;;;7.50;1.92;;;;;;;;;;5076914;28;20423;-59
2023/08/13 09:29:54;;;;;;;5.87;1.77;;;;;;;;;;5078705;28;20422;-61
2023/08/13 09:32:21;;;;;;;4.53;1.60;;;;;;;;;;5082759;28;20506;-60
2023/08/13 09:34:48;;;;;;;5.07;1.65;;;;;;;;;;5079473;28;20422;-61
2023/08/13 09:37:17;;;;;;;5.67;1.40;;;;;;;;;;5076146;28;21068;-59
2023/08/13 09:39:44;;;;;;;4.82;1.70;;;;;;;;;;5078861;28;20423;-59
2023/08/13 09:42:12;;;;;;;5.33;1.47;;;;;;;;;;5078933;28;20766;-60
2023/08/13 09:44:39;;;;;;;5.78;1.65;;;;;;;;;;5072558;28;20461;-60
2023/08/13 09:47:08;;;;;;;4.30;1.48;;;;;;;;;;5080149;28;20422;-60
2023/08/13 09:49:35;;;;;;;7.22;1.50;;;;;;;;;;5081015;28;20422;-59
2023/08/13 09:52:04;;;;;;;5.85;1.58;;;;;;;;;;5076730;28;20419;-59
2023/08/13 09:54:35;;;;;;;5.88;1.67;;;;;;;;;;5078386;28;20426;-59
2023/08/13 09:57:03;;;;;;;5.50;1.40;;;;;;;;;;5076432;28;22172;-60
2023/08/13 09:59:34;;;;;;;7.40;1.35;;;;;;;;;;5078363;28;20446;-59
2023/08/13 10:02:01;;;;;;;4.90;1.40;;;;;;;;;;5075707;28;20437;-60
2023/08/13 10:04:30;;;;;;;6.47;1.50;;;;;;;;;;5077284;28;20510;-60
2023/08/13 10:06:58;;;;;;;5.22;1.63;;;;;;;;;;5075287;28;20968;-61
2023/08/13 10:09:25;;;;;;;5.72;1.58;;;;;;;;;;5083144;28;20426;-61
2023/08/13 10:11:53;;;;;;;5.63;1.63;;;;;;;;;;5074045;28;21007;-61
2023/08/13 10:14:20;;;;;;;4.30;1.20;;;;;;;;;;5075170;28;20919;-61
2023/08/13 10:16:48;;;;;;;4.75;1.55;;;;;;;;;;5077646;28;20492;-62
2023/08/13 10:19:17;;;;;;;5.88;1.60;;;;;;;;;;5082556;28;20464;-63
2023/08/13 10:21:44;;;;;;;5.07;1.40;;;;;;;;;;5077704;28;20426;-60
2023/08/13 10:24:12;;;;;;;4.97;1.58;;;;;;;;;;5069904;28;20459;-61
2023/08/13 10:26:42;;;;;;;4.65;1.70;;;;;;;;;;5076753;28;20431;-61
2023/08/13 10:29:16;;;;;;;4.72;1.75;;;;;;;;;;5078531;28;20929;-61
2023/08/13 10:31:48;;;;;;;4.65;1.50;;;;;;;;;;5084106;28;20501;-58
2023/08/13 10:34:18;;;;;;;4.85;1.60;;;;;;;;;;5077158;28;20424;-60
2023/08/13 10:36:45;;;;;;;6.18;1.67;;;;;;;;;;5083369;28;20422;-60
2023/08/13 10:39:27;;;;;;;6.80;1.90;;;;;;;;;;5077628;28;20412;-60
2023/08/13 10:41:54;;;;;;;5.80;1.98;;;;;;;;;;5079219;28;20437;-61
2023/08/13 10:44:27;;;;;;;8.18;1.90;;;;;;;;;;5077633;28;20419;-58
2023/08/13 10:46:55;;;;;;;7.82;2.10;;;;;;;;;;5078189;28;20416;-64
2023/08/13 10:49:24;;;;;;;6.57;1.90;;;;;;;;;;5074680;28;20472;-64
2023/08/13 10:51:51;;;;;;;5.25;1.50;;;;;;;;;;5078829;28;20415;-63
2023/08/13 10:54:18;;;;;;;6.57;1.75;;;;;;;;;;5074475;28;20430;-61
2023/08/13 10:56:45;;;;;;;5.95;1.60;;;;;;;;;;5079096;28;20418;-61
2023/08/13 10:59:12;;;;;;;7.18;1.75;;;;;;;;;;5077381;28;20502;-62
2023/08/13 11:01:54;;;;;;;4.40;1.60;;;;;;;;;;5078725;28;20905;-62
2023/08/13 11:04:21;;;;;;;4.95;1.70;;;;;;;;;;5073054;28;20420;-63
2023/08/13 11:06:51;;;;;;;4.50;1.90;;;;;;;;;;5075245;28;20795;-63
2023/08/13 11:09:18;;;;;;;6.03;2.00;;;;;;;;;;5075952;28;20442;-64
2023/08/13 11:11:45;;;;;;;7.03;1.90;;;;;;;;;;5077998;28;20423;-64
2023/08/13 11:14:12;;;;;;;5.20;1.90;;;;;;;;;;5081188;28;20435;-64
2023/08/13 11:16:39;;;;;;;5.78;2.00;;;;;;;;;;5079566;28;20912;-62
2023/08/13 11:19:06;;;;;;;6.55;2.03;;;;;;;;;;5072263;28;20411;-61
2023/08/13 11:21:33;;;;;;;6.18;2.03;;;;;;;;;;5079316;28;20599;-62
2023/08/13 11:24:04;;;;;;;5.15;1.80;;;;;;;;;;5076589;28;20421;-63
2023/08/13 11:26:34;;;;;;;8.32;1.92;;;;;;;;;;5079706;28;20417;-62
2023/08/13 11:29:01;;;;;;;5.43;2.00;;;;;;;;;;5075505;28;20913;-64
2023/08/13 11:31:28;;;;;;;7.82;2.10;;;;;;;;;;5077645;28;20496;-69
2023/08/13 11:33:55;;;;;;;5.68;1.80;;;;;;;;;;5077608;28;20453;-65
2023/08/13 11:36:22;;;;;;;7.20;2.28;;;;;;;;;;5074736;28;20957;-65
2023/08/13 11:38:49;;;;;;;4.70;1.77;;;;;;;;;;5077345;28;20422;-65
2023/08/13 11:41:18;;;;;;;5.80;2.05;;;;;;;;;;5075102;28;20461;-65
2023/08/13 11:43:45;;;;;;;6.30;1.90;;;;;;;;;;5078025;28;20957;-63
2023/08/13 11:46:12;;;;;;;8.13;2.10;;;;;;;;;;5075041;28;20475;-65
2023/08/13 11:48:39;;;;;;;6.35;2.05;;;;;;;;;;5068251;28;20432;-65
2023/08/13 11:51:12;;;;;;;5.47;1.90;;;;;;;;;;5077086;28;20424;-67
2023/08/13 11:53:42;;;;;;;5.40;1.92;;;;;;;;;;5070073;28;20421;-64
2023/08/13 11:56:09;;;;;;;5.05;2.00;;;;;;;;;;5076209;28;20424;-65
2023/08/13 11:58:38;;;;;;;4.47;1.88;;;;;;;;;;5078300;28;20863;-65
2023/08/13 12:01:05;;;;;;;5.55;2.40;;;;;;;;;;5079382;28;20899;-65
2023/08/13 12:03:35;;;;;;;6.85;2.30;;;;;;;;;;5079972;28;20422;-65
2023/08/13 12:06:02;;;;;;;4.75;2.00;;;;;;;;;;5075581;28;21118;-65
2023/08/13 12:08:29;;;;;;;6.63;2.17;;;;;;;;;;5074420;28;20415;-65
2023/08/13 12:10:57;;;;;;;6.18;1.92;;;;;;;;;;5078010;28;20428;-66
2023/08/13 12:13:24;;;;;;;5.18;2.05;;;;;;;;;;5079388;28;20428;-64
2023/08/13 12:15:53;;;;;;;4.88;2.28;;;;;;;;;;5077210;28;20430;-64
2023/08/13 12:18:20;;;;;;;4.63;2.15;;;;;;;;;;5075472;28;20421;-64
2023/08/13 12:20:47;;;;;;;7.38;2.55;;;;;;;;;;5074369;28;20471;-65
2023/08/13 12:23:14;;;;;;;7.27;2.20;;;;;;;;;;5074222;28;20919;-65
2023/08/13 12:25:41;;;;;;;5.72;2.22;;;;;;;;;;5078421;28;20427;-65
2023/08/13 12:28:09;;;;;;;6.10;2.03;;;;;;;;;;5077885;28;20885;-65
2023/08/13 12:30:40;;;;;;;5.35;2.13;;;;;;;;;;5072742;28;21291;-64
2023/08/13 12:33:09;;;;;;;5.60;2.20;;;;;;;;;;5075027;28;20477;-65
2023/08/13 12:35:36;;;;;;;6.68;2.10;;;;;;;;;;5080462;28;20425;-66
2023/08/13 12:38:03;;;;;;;6.50;2.03;;;;;;;;;;5078531;28;20419;-66
2023/08/13 12:40:30;;;;;;;6.32;2.22;;;;;;;;;;5083311;28;20470;-66
2023/08/13 12:42:57;;;;;;;6.10;2.08;;;;;;;;;;5077422;28;20422;-66
2023/08/13 12:45:24;;;;;;;6.13;2.05;;;;;;;;;;5078294;28;20418;-66
2023/08/13 12:47:51;;;;;;;4.05;2.20;;;;;;;;;;5080498;28;20411;-65
2023/08/13 12:50:19;;;;;;;5.40;2.10;;;;;;;;;;5081639;28;20945;-66
2023/08/13 12:52:46;;;;;;;5.22;2.40;;;;;;;;;;5080581;28;20420;-66
2023/08/13 12:55:13;;;;;;;5.45;2.08;;;;;;;;;;5076975;28;20743;-66
2023/08/13 12:57:40;;;;;;;6.55;2.00;;;;;;;;;;5081423;28;20430;-66
2023/08/13 13:00:09;;;;;;;5.60;1.95;;;;;;;;;;5078502;28;20925;-66
2023/08/13 13:02:36;;;;;;;6.17;2.07;;;;;;;;;;5080899;28;20492;-66
2023/08/13 13:05:04;;;;;;;7.25;2.47;;;;;;;;;;5080546;28;20947;-66
2023/08/13 13:07:32;;;;;;;5.75;1.85;;;;;;;;;;5078577;28;20780;-66
2023/08/13 13:09:59;;;;;;;6.53;1.90;;;;;;;;;;5079644;28;20973;-66
2023/08/13 13:12:26;;;;;;;5.93;2.00;;;;;;;;;;5062918;28;20506;-66
2023/08/13 13:14:53;;;;;;;5.68;2.30;;;;;;;;;;5079429;28;20427;-66
2023/08/13 13:17:22;;;;;;;6.32;2.15;;;;;;;;;;5079036;28;20423;-65
2023/08/13 13:19:49;;;;;;;6.13;2.03;;;;;;;;;;5076473;28;20425;-65
2023/08/13 13:22:16;;;;;;;5.80;2.20;;;;;;;;;;5073572;28;20482;-65
2023/08/13 13:24:45;;;;;;;4.28;1.95;;;;;;;;;;5072746;28;20411;-65
2023/08/13 13:27:11;;;;;;;6.15;2.15;;;;;;;;;;5078769;28;20437;-65
2023/08/13 13:29:38;;;;;;;5.68;1.90;;;;;;;;;;5080985;28;20410;-65
2023/08/13 13:32:06;;;;;;;7.43;2.10;;;;;;;;;;5072954;28;20561;-66
2023/08/13 13:34:33;;;;;;;6.82;2.00;;;;;;;;;;5077111;28;20437;-68
2023/08/13 13:37:00;;;;;;;5.75;2.17;;;;;;;;;;5078807;28;20435;-66
2023/08/13 13:39:27;;;;;;;5.78;2.30;;;;;;;;;;5080576;28;20798;-67
2023/08/13 13:41:55;;;;;;;7.30;2.42;;;;;;;;;;5083836;28;20562;-66
2023/08/13 13:44:22;;;;;;;5.85;2.22;;;;;;;;;;5073573;28;20821;-66
2023/08/13 13:46:49;;;;;;;4.68;2.08;;;;;;;;;;5079330;28;20424;-64
2023/08/13 13:49:16;;;;;;;5.68;2.17;;;;;;;;;;5077804;28;20766;-63
2023/08/13 13:51:43;;;;;;;7.13;2.30;;;;;;;;;;5080154;28;20546;-64
2023/08/13 13:54:10;;;;;;;6.30;2.35;;;;;;;;;;5079866;28;20415;-65
2023/08/13 13:56:37;;;;;;;7.03;2.55;;;;;;;;;;5079451;28;20490;-65
2023/08/13 13:59:06;;;;;;;5.90;2.00;;;;;;;;;;5079119;28;20864;-64
2023/08/13 14:01:33;;;;;;;5.68;2.50;;;;;;;;;;5080121;28;20419;-64
2023/08/13 14:04:00;;;;;;;5.83;2.40;;;;;;;;;;5078247;28;20461;-65
2023/08/13 14:06:27;;;;;;;5.10;2.33;;;;;;;;;;5080321;28;20411;-64
2023/08/13 14:08:54;;;;;;;7.00;2.03;;;;;;;;;;5079237;28;20945;-64
2023/08/13 14:11:21;;;;;;;6.15;2.72;;;;;;;;;;5076647;28;20461;-63
2023/08/13 14:13:48;;;;;;;4.38;2.15;;;;;;;;;;5080608;28;20426;-64
2023/08/13 14:16:16;;;;;;;5.63;2.40;;;;;;;;;;5078457;28;20449;-64
2023/08/13 14:18:43;;;;;;;5.32;2.30;;;;;;;;;;5081720;28;20415;-64
2023/08/13 14:21:10;;;;;;;6.82;2.70;;;;;;;;;;5078947;28;20918;-64
2023/08/13 14:23:37;;;;;;;8.85;2.85;;;;;;;;;;5079791;28;20517;-64
2023/08/13 14:26:04;;;;;;;5.88;2.80;;;;;;;;;;5076388;28;20883;-64
2023/08/13 14:28:31;;;;;;;8.27;3.30;;;;;;;;;;5081601;28;20894;-64
2023/08/13 14:30:58;;;;;;;7.00;3.25;;;;;;;;;;5078783;28;20409;-64
2023/08/13 14:33:28;;;;;;;7.47;3.33;;;;;;;;;;5081414;28;20787;-66
2023/08/13 14:35:55;;;;;;;6.75;3.60;;;;;;;;;;5077154;28;20973;-66
2023/08/13 14:38:22;;;;;;;7.28;3.72;;;;;;;;;;5074925;28;20417;-66
2023/08/13 14:40:49;;;;;;;7.10;4.22;;;;;;;;;;5067954;28;20415;-65
2023/08/13 14:43:16;;;;;;;8.10;4.33;;;;;;;;;;5074213;28;20839;-67